createdAt,value
2022-10-26T00:05:55.601Z,10.22
2022-10-26T00:10:58.178Z,10.27
2022-10-26T00:16:03.530Z,10.18
2022-10-26T00:26:08.776Z,10.05
2022-10-26T00:31:14.544Z,9.96
2022-10-26T00:36:17.254Z,10.03
2022-10-26T00:41:20.045Z,9.96
2022-10-26T00:46:22.587Z,9.96
2022-10-26T00:56:27.714Z,9.89
2022-10-26T01:01:30.194Z,9.95
2022-10-26T01:06:32.913Z,9.91
2022-10-26T01:11:35.711Z,9.86
2022-10-26T01:16:39.516Z,9.84
2022-10-26T01:21:41.560Z,9.81
2022-10-26T01:31:47.284Z,9.74
2022-10-26T01:36:49.872Z,9.71
2022-10-26T01:41:52.532Z,9.8
2022-10-26T01:46:55.228Z,9.73
2022-10-26T01:51:57.756Z,9.72
2022-10-26T01:57:00.519Z,9.73
2022-10-26T02:02:03.173Z,9.78
2022-10-26T02:07:05.620Z,9.7
2022-10-26T02:12:08.523Z,9.71
2022-10-26T02:17:11.160Z,9.73
2022-10-26T02:22:16.325Z,9.81
2022-10-26T02:27:19.115Z,9.99
2022-10-26T02:32:21.743Z,10
2022-10-26T02:37:24.198Z,9.8
2022-10-26T02:42:26.946Z,9.73
2022-10-26T02:47:29.639Z,9.64
2022-10-26T02:57:34.780Z,9.59
2022-10-26T03:02:37.530Z,9.54
2022-10-26T03:07:40.279Z,9.53
2022-10-26T03:12:42.605Z,9.45
2022-10-26T03:17:44.975Z,9.39
2022-10-26T03:22:47.652Z,9.4
2022-10-26T03:32:53.258Z,9.44
2022-10-26T03:37:58.469Z,9.52
2022-10-26T03:43:01.208Z,9.56
2022-10-26T03:48:03.832Z,9.46
2022-10-26T03:53:06.423Z,9.47
2022-10-26T03:58:09.113Z,9.49
2022-10-26T04:03:14.362Z,9.48
2022-10-26T04:08:17.210Z,9.44
2022-10-26T04:13:19.840Z,9.47
2022-10-26T04:28:27.701Z,9.5
2022-10-26T04:33:30.221Z,9.46
2022-10-26T04:38:38.371Z,9.46
2022-10-26T04:43:41.259Z,9.45
2022-10-26T04:48:43.966Z,9.44
2022-10-26T04:58:49.189Z,9.36
2022-10-26T05:03:54.544Z,9.3
2022-10-26T05:13:59.921Z,9.38
2022-10-26T05:29:08.111Z,9.38
2022-10-26T05:34:10.797Z,9.2
2022-10-26T05:39:13.547Z,9.24
2022-10-26T05:44:16.102Z,9.39
2022-10-26T05:49:19.123Z,9.49
2022-10-26T05:54:21.882Z,9.46
2022-10-26T05:59:24.708Z,9.43
2022-10-26T06:04:27.100Z,9.47
2022-10-26T06:09:35.406Z,9.6
2022-10-26T06:14:41.024Z,9.7
2022-10-26T06:19:43.685Z,9.89
2022-10-26T06:29:49.496Z,10.33
2022-10-26T06:34:52.482Z,10.54
2022-10-26T06:44:59.018Z,10.77
2022-10-26T06:50:04.580Z,11.18
2022-10-26T07:00:10.398Z,11.59
2022-10-26T07:10:15.911Z,12.03
2022-10-26T07:15:18.761Z,12.09
2022-10-26T07:20:21.564Z,12.24
2022-10-26T07:25:24.019Z,12.46
2022-10-26T07:30:26.837Z,12.78
2022-10-26T07:35:29.545Z,12.96
2022-10-26T07:45:34.909Z,13.15
2022-10-26T07:50:40.464Z,13.43
2022-10-26T07:55:43.278Z,13.53
2022-10-26T08:00:45.864Z,13.73
2022-10-26T08:05:48.418Z,13.82
2022-10-26T08:10:50.808Z,14.03
2022-10-26T08:21:01.940Z,14.1
2022-10-26T08:26:02.034Z,14.39
2022-10-26T08:31:04.948Z,14.45
2022-10-26T08:36:07.533Z,14.51
2022-10-26T08:41:10.339Z,14.8
2022-10-26T08:46:13.405Z,15.18
2022-10-26T08:51:16.290Z,15.26
2022-10-26T09:01:21.653Z,15.69
2022-10-26T09:06:26.883Z,15.91
2022-10-26T09:11:29.444Z,15.74
2022-10-26T09:16:31.892Z,16.06
2022-10-26T09:21:34.836Z,16.4
2022-10-26T09:31:49.558Z,16.48
2022-10-26T09:36:52.076Z,16.75
2022-10-26T09:41:54.700Z,16.92
2022-10-26T09:47:00.151Z,16.61
2022-10-26T09:52:02.877Z,16.71
2022-10-26T09:57:08.179Z,16.86
2022-10-26T10:02:10.888Z,17.32
2022-10-26T10:12:16.133Z,17.4
2022-10-26T10:22:24.651Z,17.75
2022-10-26T10:27:27.315Z,18.05
2022-10-26T10:37:32.515Z,17.97
2022-10-26T10:42:35.418Z,18.26
2022-10-26T10:52:43.463Z,18.43
2022-10-26T11:02:48.838Z,18.95
2022-10-26T11:07:51.761Z,19.14
2022-10-26T11:12:54.144Z,19.54
2022-10-26T11:17:56.673Z,19.37
2022-10-26T11:28:01.812Z,19.61
2022-10-26T11:33:04.717Z,19.83
2022-10-26T11:38:07.293Z,19.53
2022-10-26T11:48:12.274Z,19.78
2022-10-26T11:53:14.669Z,19.7
2022-10-26T11:58:17.514Z,19.51
2022-10-26T12:03:20.142Z,19.82
2022-10-26T12:13:25.515Z,20.09
2022-10-26T12:18:43.428Z,20.34
2022-10-26T12:23:34.147Z,20.04
2022-10-26T12:28:33.763Z,19.68
2022-10-26T12:33:36.312Z,19.56
2022-10-26T12:38:38.941Z,19.43
2022-10-26T12:43:41.643Z,19.47
2022-10-26T12:53:47.069Z,19.52
2022-10-26T12:58:49.791Z,19.75
2022-10-26T13:03:52.458Z,19.81
2022-10-26T13:13:57.694Z,19.71
2022-10-26T13:19:00.342Z,19.8
2022-10-26T13:24:02.966Z,19.91
2022-10-26T13:29:10.639Z,19.8
2022-10-26T13:39:16.638Z,19.58
2022-10-26T13:44:20.385Z,19.5
2022-10-26T13:49:22.091Z,19.61
2022-10-26T13:54:24.882Z,19.56
2022-10-26T13:59:27.331Z,19.52
2022-10-26T14:04:29.694Z,19.44
2022-10-26T14:09:35.229Z,19.38
2022-10-26T14:14:40.764Z,19.27
2022-10-26T14:19:46.300Z,19.28
2022-10-26T14:30:10.093Z,19.16
2022-10-26T14:34:53.918Z,19.04
2022-10-26T14:39:56.589Z,18.8
2022-10-26T14:50:02.107Z,18.41
2022-10-26T14:55:04.793Z,18.26
2022-10-26T15:00:07.468Z,18.15
2022-10-26T15:05:10.246Z,18.08
2022-10-26T15:10:14.035Z,18.05
2022-10-26T15:15:16.751Z,18.03
2022-10-26T15:20:19.750Z,18
2022-10-26T15:30:27.611Z,17.91
2022-10-26T15:35:30.338Z,17.82
2022-10-26T15:40:32.833Z,17.59
2022-10-26T15:45:35.482Z,17.37
2022-10-26T15:50:40.545Z,17.2
2022-10-26T16:00:46.375Z,16.87
2022-10-26T16:05:48.449Z,16.77
2022-10-26T16:10:50.994Z,16.71
2022-10-26T16:15:53.688Z,16.55
2022-10-26T16:20:59.013Z,16.44
2022-10-26T16:26:01.538Z,16.45
2022-10-26T16:36:09.553Z,16.35
2022-10-26T16:41:12.121Z,16.35
2022-10-26T16:46:14.846Z,16.36
2022-10-26T16:51:17.495Z,16.38
2022-10-26T16:56:22.809Z,16.36
2022-10-26T17:06:28.105Z,16.43
2022-10-26T17:11:30.799Z,16.47
2022-10-26T17:16:33.377Z,16.47
2022-10-26T17:21:36.108Z,16.46
2022-10-26T17:26:38.566Z,16.32
2022-10-26T17:31:41.012Z,16.36
2022-10-26T17:41:46.222Z,16.31
2022-10-26T17:46:48.638Z,16.3
2022-10-26T17:51:53.835Z,16.35
2022-10-26T17:56:56.681Z,16.33
2022-10-26T18:01:59.342Z,16.3
2022-10-26T18:07:01.840Z,16.3
2022-10-26T18:12:06.028Z,16.27
2022-10-26T18:17:08.876Z,16.23
2022-10-26T18:22:11.405Z,16.14
2022-10-26T18:32:16.853Z,16.08
2022-10-26T18:37:22.311Z,16.1
2022-10-26T18:42:25.083Z,16.06
2022-10-26T18:52:30.566Z,15.94
2022-10-26T18:57:33.014Z,15.9
2022-10-26T19:17:43.896Z,15.82
2022-10-26T19:32:54.550Z,15.46
2022-10-26T19:42:59.842Z,15.18
2022-10-26T19:48:02.345Z,15.07
2022-10-26T19:53:04.913Z,15.02
2022-10-26T19:58:07.628Z,14.94
2022-10-26T20:03:10.260Z,14.9
2022-10-26T20:08:15.727Z,14.78
2022-10-26T20:13:18.300Z,14.69
2022-10-26T20:23:23.209Z,14.54
2022-10-26T20:28:25.679Z,14.46
2022-10-26T20:33:31.015Z,14.29
2022-10-26T20:38:33.788Z,14.23
2022-10-26T20:43:36.580Z,14.14
2022-10-26T20:48:39.259Z,14.07
2022-10-26T20:53:42.249Z,13.98
2022-10-26T21:03:47.768Z,13.81
2022-10-26T21:13:53.525Z,13.64
2022-10-26T21:18:56.270Z,13.6
2022-10-26T21:23:58.743Z,13.53
2022-10-26T21:29:01.360Z,13.39
2022-10-26T21:34:06.693Z,13.39
2022-10-26T21:39:09.725Z,13.36
2022-10-26T21:44:23.471Z,13.18
2022-10-26T21:54:17.603Z,13.09
2022-10-26T21:59:20.368Z,13.01
2022-10-26T22:04:26.055Z,12.95
2022-10-26T22:09:28.454Z,12.95
2022-10-26T22:19:51.884Z,12.95
2022-10-26T22:24:54.638Z,12.91
2022-10-26T22:29:57.439Z,12.86
2022-10-26T22:40:02.560Z,12.71
2022-10-26T22:45:05.019Z,12.66
2022-10-26T22:50:07.666Z,12.52
2022-10-26T22:55:10.332Z,12.55
2022-10-26T23:00:15.733Z,12.59
2022-10-26T23:05:18.432Z,12.54
2022-10-26T23:10:23.753Z,12.47
2022-10-26T23:25:31.452Z,12.43
2022-10-26T23:30:34.631Z,12.42
2022-10-26T23:35:37.419Z,12.37
2022-10-26T23:40:40.163Z,12.26
2022-10-26T23:45:42.862Z,12.16
